Time;durP1;ratioP1;P1;durP2;ratioP2;P2;SDS_P1;SDS_P2;PMS_P1;PMS_P2;Temp;Humidity;BMP_temperature;BMP_pressure;BME280_temperature;BME280_humidity;BME280_pressure;Samples;Min_cycle;Max_cycle;Signal;HPM_P1;HPM_P2
2024/03/10 00:00:20;;;;;;;7.30;4.35;;;;;;;6.77;65.20;96592.06;4914256;28;103357;-71
2024/03/10 00:02:50;;;;;;;6.45;4.00;;;;;;;6.92;64.34;96591.13;4915181;28;106108;-71
2024/03/10 00:05:19;;;;;;;7.25;4.05;;;;;;;7.07;64.39;96597.03;4919949;28;102800;-71
2024/03/10 00:07:47;;;;;;;11.05;4.68;;;;;;;7.12;64.44;96586.72;4917280;28;103006;-71
2024/03/10 00:10:17;;;;;;;11.55;5.03;;;;;;;6.94;64.53;96594.34;4897779;28;106371;-71
2024/03/10 00:12:47;;;;;;;7.68;4.20;;;;;;;6.86;64.89;96597.16;4917951;28;103270;-71
2024/03/10 00:15:16;;;;;;;9.80;4.65;;;;;;;6.91;64.24;96592.13;4916754;28;102711;-71
2024/03/10 00:17:44;;;;;;;8.98;4.15;;;;;;;6.99;64.74;96584.06;4913492;28;102789;-71
2024/03/10 00:20:13;;;;;;;7.55;4.05;;;;;;;7.20;63.92;96588.38;4909858;28;103481;-72
2024/03/10 00:22:42;;;;;;;7.45;4.32;;;;;;;7.19;64.11;96581.50;4914936;28;103245;-71
2024/03/10 00:25:16;;;;;;;7.82;4.15;;;;;;;6.79;65.56;96584.78;4898045;28;102903;-71
2024/03/10 00:27:44;;;;;;;12.25;4.40;;;;;;;6.84;64.98;96594.72;4897223;28;102894;-71
2024/03/10 00:30:12;;;;;;;11.57;4.40;;;;;;;7.01;64.87;96582.03;4917134;28;105513;-71
2024/03/10 00:32:41;;;;;;;6.72;4.00;;;;;;;7.06;65.08;96582.28;4919155;28;105493;-71
2024/03/10 00:35:10;;;;;;;9.02;4.40;;;;;;;7.01;64.67;96582.03;4917912;28;102743;-71
2024/03/10 00:37:38;;;;;;;6.95;4.10;;;;;;;7.06;64.95;96571.75;4918164;28;102878;-71
2024/03/10 00:40:08;;;;;;;7.65;4.35;;;;;;;7.01;64.80;96568.06;4917328;28;103740;-71
2024/03/10 00:42:38;;;;;;;9.15;3.90;;;;;;;7.05;64.95;96569.28;4921796;28;103215;-71
2024/03/10 00:45:09;;;;;;;7.32;4.13;;;;;;;7.26;63.52;96560.44;4920169;28;103216;-70
2024/03/10 00:47:38;;;;;;;6.78;4.38;;;;;;;7.14;64.24;96568.91;4921772;28;102939;-71
2024/03/10 00:50:09;;;;;;;8.73;4.15;;;;;;;7.19;63.89;96570.13;4919802;28;103456;-71
2024/03/10 00:52:38;;;;;;;10.13;4.10;;;;;;;7.29;63.13;96560.03;4917657;28;103010;-71
2024/03/10 00:55:07;;;;;;;7.85;4.43;;;;;;;7.27;63.37;96556.78;4913742;28;102624;-71
2024/03/10 00:57:35;;;;;;;8.57;4.72;;;;;;;7.22;63.82;96565.28;4921483;28;102898;-71
2024/03/10 01:00:05;;;;;;;8.30;4.45;;;;;;;7.22;64.42;96559.19;4911664;28;103293;-71
2024/03/10 01:02:33;;;;;;;9.68;4.47;;;;;;;7.23;63.83;96560.81;4915623;28;103185;-70
2024/03/10 01:05:01;;;;;;;8.27;3.78;;;;;;;7.25;63.97;96566.72;4916226;28;102699;-71
2024/03/10 01:07:29;;;;;;;8.80;4.05;;;;;;;7.26;64.07;96576.25;4916853;28;103019;-71
2024/03/10 01:09:58;;;;;;;8.75;3.92;;;;;;;7.35;63.68;96563.69;4920061;28;103255;-70
2024/03/10 01:12:26;;;;;;;9.75;4.78;;;;;;;7.26;63.98;96571.78;4905397;28;106408;-70
2024/03/10 01:14:55;;;;;;;6.43;3.85;;;;;;;7.40;63.71;96569.16;4922401;28;103063;-71
2024/03/10 01:17:24;;;;;;;9.23;3.78;;;;;;;7.27;63.70;96565.50;4923719;28;102927;-72
2024/03/10 01:19:52;;;;;;;8.88;3.95;;;;;;;7.16;64.65;96560.03;4922367;28;103445;-72
2024/03/10 01:22:21;;;;;;;6.60;4.00;;;;;;;7.03;64.98;96550.25;4920592;28;103346;-71
2024/03/10 01:24:49;;;;;;;9.77;4.53;;;;;;;6.95;65.38;96545.97;4926476;28;102686;-71
2024/03/10 01:27:17;;;;;;;7.65;3.75;;;;;;;7.05;65.00;96542.97;4904916;28;102903;-71
2024/03/10 01:29:45;;;;;;;6.13;3.97;;;;;;;7.07;64.56;96541.75;4916744;28;103246;-71
2024/03/10 01:32:12;;;;;;;8.27;3.92;;;;;;;7.10;64.13;96548.44;4918387;28;105500;-71
2024/03/10 01:34:42;;;;;;;8.57;4.28;;;;;;;7.07;64.63;96543.59;4921844;28;102667;-71
2024/03/10 01:37:10;;;;;;;8.90;4.70;;;;;;;7.03;64.83;96537.91;4921565;28;102813;-71
2024/03/10 01:39:37;;;;;;;6.65;3.75;;;;;;;7.10;64.67;96536.09;4918052;28;103258;-71
2024/03/10 01:42:05;;;;;;;9.07;3.83;;;;;;;7.17;64.01;96528.22;4921794;28;103700;-71
2024/03/10 01:44:33;;;;;;;7.90;4.10;;;;;;;7.13;63.87;96527.81;4926872;28;102823;-71
2024/03/10 01:47:02;;;;;;;9.00;4.40;;;;;;;7.08;64.37;96511.78;4921097;28;102769;-71
2024/03/10 01:49:30;;;;;;;10.98;4.25;;;;;;;7.10;63.96;96522.13;4922595;28;103586;-71
2024/03/10 01:51:59;;;;;;;7.72;3.72;;;;;;;7.10;63.74;96519.47;4915203;28;103568;-71
2024/03/10 01:54:33;;;;;;;8.98;4.05;;;;;;;7.09;63.59;96517.88;4911970;28;102630;-71
2024/03/10 01:57:01;;;;;;;7.22;3.80;;;;;;;7.17;63.82;96519.53;4898130;28;102835;-71
2024/03/10 01:59:31;;;;;;;7.25;3.55;;;;;;;7.16;64.08;96508.16;4898748;28;105672;-71
2024/03/10 02:01:59;;;;;;;7.00;4.28;;;;;;;7.14;63.47;96497.03;4903710;28;106274;-71
2024/03/10 02:04:28;;;;;;;9.75;4.30;;;;;;;7.16;63.27;96502.09;4907635;28;102682;-71
2024/03/10 02:06:56;;;;;;;7.68;3.55;;;;;;;7.07;64.01;96504.91;4914810;28;102914;-71
2024/03/10 02:09:25;;;;;;;7.00;3.83;;;;;;;7.03;64.55;96497.63;4897104;28;104383;-71
2024/03/10 02:11:53;;;;;;;8.20;4.13;;;;;;;6.94;64.77;96499.63;4918445;28;103258;-71
2024/03/10 02:14:22;;;;;;;6.90;4.18;;;;;;;6.89;64.91;96492.34;4904866;28;102665;-71
2024/03/10 02:16:50;;;;;;;5.93;3.75;;;;;;;6.95;64.56;96502.03;4919221;28;102678;-71
2024/03/10 02:19:18;;;;;;;8.45;3.88;;;;;;;6.92;64.25;96499.03;4914093;28;103279;-71
2024/03/10 02:21:47;;;;;;;7.03;3.75;;;;;;;7.03;63.90;96498.41;4915426;28;106321;-71
2024/03/10 02:24:19;;;;;;;5.97;3.47;;;;;;;6.91;64.20;96481.59;4920672;28;102929;-71
2024/03/10 02:26:49;;;;;;;6.72;3.65;;;;;;;6.78;64.87;96485.00;4918372;28;102660;-71
2024/03/10 02:29:18;;;;;;;7.20;4.22;;;;;;;6.80;64.25;96491.69;4917544;28;103355;-72
2024/03/10 02:48:32;;;;;;;6.50;2.92;;;;;;;6.92;62.43;96449.81;4916947;28;103856;-72
2024/03/10 02:51:00;;;;;;;8.68;3.22;;;;;;;6.88;62.58;96443.34;4914639;28;103345;-71
2024/03/10 02:53:30;;;;;;;6.10;3.67;;;;;;;6.96;61.82;96445.78;4917211;28;103773;-72
2024/03/10 02:55:58;;;;;;;5.05;3.00;;;;;;;7.08;60.94;96443.34;4917136;28;103091;-71
2024/03/10 02:58:28;;;;;;;5.32;3.08;;;;;;;7.13;60.46;96446.19;4916358;28;102745;-72
2024/03/10 03:00:57;;;;;;;6.65;3.33;;;;;;;7.16;60.58;96449.44;4898239;28;106361;-72
2024/03/10 03:03:25;;;;;;;5.57;3.05;;;;;;;7.33;60.69;96460.41;4912613;28;107439;-72
2024/03/10 03:05:56;;;;;;;4.88;2.58;;;;;;;7.42;60.98;96456.53;4920447;28;104179;-72
2024/03/10 03:08:24;;;;;;;5.10;2.78;;;;;;;7.39;61.22;96462.19;4916177;28;102761;-72
2024/03/10 03:10:52;;;;;;;6.15;3.10;;;;;;;7.35;61.64;96446.00;4919907;28;104591;-72
2024/03/10 03:13:20;;;;;;;7.65;4.05;;;;;;;7.18;62.79;96442.16;4918735;28;103261;-72
2024/03/10 03:15:50;;;;;;;6.70;3.75;;;;;;;7.25;62.03;96432.44;4914905;28;102799;-72
2024/03/10 03:18:18;;;;;;;6.03;3.33;;;;;;;7.28;62.06;96427.59;4921453;28;102901;-72
2024/03/10 03:20:46;;;;;;;5.15;2.78;;;;;;;7.21;62.11;96425.97;4919981;28;103295;-71
2024/03/10 03:23:14;;;;;;;6.05;3.20;;;;;;;7.26;62.14;96420.91;4923775;28;103506;-72
2024/03/10 03:25:42;;;;;;;5.68;2.83;;;;;;;7.27;61.75;96420.69;4922189;28;102651;-72
2024/03/10 03:28:11;;;;;;;5.97;3.17;;;;;;;7.27;62.04;96414.59;4920516;28;102680;-72
2024/03/10 03:30:42;;;;;;;4.18;2.53;;;;;;;7.26;62.22;96418.28;4913353;28;103239;-72
2024/03/10 03:33:12;;;;;;;5.18;3.03;;;;;;;7.21;62.90;96399.63;4914550;28;105722;-72
2024/03/10 03:35:40;;;;;;;5.93;3.05;;;;;;;6.75;62.30;96398.59;4919915;28;102673;-72
2024/03/10 03:38:09;;;;;;;6.38;3.40;;;;;;;6.77;62.81;96400.03;4918268;28;102806;-71
2024/03/10 03:40:37;;;;;;;6.00;3.10;;;;;;;6.90;62.70;96408.94;4913942;28;105687;-72
2024/03/10 03:43:05;;;;;;;4.90;2.63;;;;;;;6.94;62.56;96400.44;4914665;28;103545;-72
2024/03/10 03:45:33;;;;;;;4.25;2.90;;;;;;;6.58;62.30;96401.59;4917607;28;102752;-71
2024/03/10 03:48:02;;;;;;;6.03;3.38;;;;;;;6.57;62.22;96394.69;4911630;28;102772;-72
2024/03/10 03:50:32;;;;;;;4.72;2.60;;;;;;;6.51;61.68;96379.75;4919295;28;103381;-72
2024/03/10 03:53:01;;;;;;;6.05;2.97;;;;;;;6.63;61.78;96372.06;4900949;28;105519;-72
2024/03/10 03:55:29;;;;;;;6.13;2.85;;;;;;;6.63;61.25;96372.06;4898002;28;102859;-72
2024/03/10 03:57:57;;;;;;;6.97;2.60;;;;;;;6.71;60.96;96371.88;4915564;28;102754;-71
2024/03/10 04:00:25;;;;;;;5.20;2.72;;;;;;;6.77;61.01;96363.19;4919747;28;108857;-72
2024/03/10 04:02:53;;;;;;;4.70;2.80;;;;;;;6.89;60.42;96378.34;4915224;28;103153;-72
2024/03/10 04:05:21;;;;;;;7.13;3.10;;;;;;;6.69;60.76;96373.88;4917218;28;102713;-71
2024/03/10 04:07:50;;;;;;;6.53;2.85;;;;;;;6.76;60.28;96372.09;4914895;28;103745;-71
2024/03/10 04:10:18;;;;;;;6.65;3.25;;;;;;;6.71;61.15;96373.72;4916562;28;103688;-71
2024/03/10 04:12:47;;;;;;;4.60;2.40;;;;;;;6.55;61.59;96359.09;4916396;28;103192;-71
2024/03/10 04:15:15;;;;;;;5.45;3.22;;;;;;;6.27;62.80;96357.41;4918957;28;104518;-71
2024/03/10 04:17:46;;;;;;;5.22;2.50;;;;;;;6.22;63.44;96344.06;4920842;28;102879;-71
2024/03/10 04:20:14;;;;;;;8.15;3.13;;;;;;;6.16;63.43;96344.84;4919590;28;103634;-71
2024/03/10 04:22:42;;;;;;;4.47;2.63;;;;;;;6.28;62.49;96324.88;4918322;28;103210;-71
2024/03/10 04:25:11;;;;;;;5.78;3.25;;;;;;;6.21;62.41;96322.25;4910018;28;103452;-71
2024/03/10 04:27:40;;;;;;;5.50;2.70;;;;;;;6.23;62.00;96314.16;4917055;28;102762;-72
2024/03/10 04:30:09;;;;;;;6.18;3.05;;;;;;;6.33;61.40;96316.38;4916253;28;102915;-72
2024/03/10 04:32:39;;;;;;;5.88;3.00;;;;;;;6.34;61.00;96308.31;4910440;28;105168;-72
2024/03/10 04:35:07;;;;;;;5.85;2.50;;;;;;;6.42;60.78;96307.28;4914035;28;103650;-71
2024/03/10 04:37:35;;;;;;;6.05;2.70;;;;;;;6.36;61.66;96311.53;4913499;28;102633;-72
2024/03/10 04:40:06;;;;;;;5.85;3.03;;;;;;;6.40;61.08;96320.63;4915885;28;103173;-71
2024/03/10 04:42:38;;;;;;;5.10;2.40;;;;;;;6.53;60.02;96316.41;4913076;28;104882;-72
2024/03/10 04:45:06;;;;;;;5.57;2.50;;;;;;;6.47;60.46;96318.84;4916957;28;102661;-72
2024/03/10 04:47:34;;;;;;;6.85;2.53;;;;;;;6.49;60.42;96323.09;4918710;28;102698;-72
2024/03/10 04:50:03;;;;;;;7.18;2.97;;;;;;;6.50;60.39;96329.94;4921611;28;103250;-71
2024/03/10 04:52:31;;;;;;;4.25;2.33;;;;;;;6.53;60.35;96313.78;4917897;28;103302;-70
2024/03/10 04:54:58;;;;;;;4.55;2.53;;;;;;;6.30;60.86;96313.16;4915083;28;103080;-71
2024/03/10 04:57:26;;;;;;;7.15;2.88;;;;;;;6.18;61.44;96312.09;4922971;28;102960;-72
2024/03/10 04:59:57;;;;;;;6.20;2.63;;;;;;;6.21;61.59;96305.63;4925741;28;103165;-71
2024/03/10 05:02:26;;;;;;;4.28;2.35;;;;;;;6.14;61.59;96301.19;4918503;28;108480;-71
2024/03/10 05:04:54;;;;;;;7.60;2.72;;;;;;;6.23;61.10;96303.63;4925969;28;102993;-71
2024/03/10 05:07:22;;;;;;;4.93;2.60;;;;;;;6.31;60.89;96316.59;4919851;28;102762;-72
2024/03/10 05:09:50;;;;;;;5.70;2.30;;;;;;;6.41;60.67;96327.53;4922573;28;102715;-72
2024/03/10 05:12:18;;;;;;;7.03;2.35;;;;;;;6.56;60.50;96329.97;4918044;28;103440;-71
2024/03/10 05:14:46;;;;;;;3.90;2.28;;;;;;;6.65;60.52;96335.84;4921390;28;103031;-71
2024/03/10 05:17:16;;;;;;;4.43;2.65;;;;;;;6.65;60.71;96333.22;4923226;28;102634;-71
2024/03/10 05:19:44;;;;;;;5.75;2.58;;;;;;;6.72;61.24;96326.16;4899014;28;106134;-71
2024/03/10 05:22:13;;;;;;;5.40;2.63;;;;;;;6.72;61.45;96326.16;4914201;28;103515;-71
2024/03/10 05:24:42;;;;;;;6.93;2.92;;;;;;;6.47;61.30;96321.47;4914837;28;102688;-71
2024/03/10 05:27:11;;;;;;;3.20;2.00;;;;;;;6.13;61.66;96319.78;4917781;28;103893;-71
2024/03/10 05:29:39;;;;;;;4.82;2.70;;;;;;;6.34;61.75;96316.19;4919360;28;103451;-71
2024/03/10 05:32:07;;;;;;;2.90;2.00;;;;;;;6.53;61.42;96319.84;4914477;28;103313;-71
2024/03/10 05:34:36;;;;;;;5.63;2.00;;;;;;;6.63;61.30;96314.22;4912868;28;102864;-71
2024/03/10 05:37:04;;;;;;;6.22;2.63;;;;;;;6.69;61.05;96317.84;4881089;28;103196;-71
2024/03/10 05:39:36;;;;;;;4.43;2.15;;;;;;;6.67;61.68;96333.84;4908189;28;106019;-72
2024/03/10 05:42:05;;;;;;;9.50;3.78;;;;;;;6.35;64.72;96328.31;4912660;28;103368;-71
2024/03/10 05:44:33;;;;;;;6.72;3.08;;;;;;;6.49;63.84;96333.63;4914954;28;102869;-71
2024/03/10 05:47:01;;;;;;;6.80;3.70;;;;;;;6.21;65.29;96342.44;4915709;28;102878;-70
2024/03/10 05:49:30;;;;;;;8.27;3.58;;;;;;;6.30;65.29;96341.25;4919976;28;103474;-71
2024/03/10 05:51:59;;;;;;;6.32;3.40;;;;;;;6.42;64.56;96342.28;4920932;28;103524;-71
2024/03/10 05:54:27;;;;;;;6.85;3.53;;;;;;;6.28;65.96;96353.78;4916237;28;103370;-70
2024/03/10 05:56:59;;;;;;;7.97;3.75;;;;;;;6.07;66.00;96362.63;4917918;28;102849;-71
2024/03/10 05:59:27;;;;;;;9.43;2.97;;;;;;;5.99;67.01;96382.00;4918901;28;108189;-71
2024/03/10 06:01:55;;;;;;;5.10;2.95;;;;;;;6.07;66.00;96371.31;4904824;28;106909;-71
2024/03/10 06:04:23;;;;;;;6.72;3.10;;;;;;;6.13;65.85;96367.91;4916977;28;102707;-71
2024/03/10 06:06:51;;;;;;;7.38;3.80;;;;;;;6.25;65.43;96359.44;4908949;28;102971;-70
2024/03/10 06:09:20;;;;;;;6.75;3.33;;;;;;;6.29;65.63;96360.69;4913686;28;103991;-70
2024/03/10 06:11:48;;;;;;;5.45;2.95;;;;;;;6.27;65.79;96357.41;4926256;28;103288;-70
2024/03/10 06:14:16;;;;;;;7.40;3.55;;;;;;;5.66;67.44;96361.63;4890620;28;103381;-70
2024/03/10 06:16:45;;;;;;;8.95;4.22;;;;;;;5.93;66.92;96361.72;4918075;28;102837;-71
2024/03/10 06:27:36;;;;;;;7.40;3.20;;;;;;;5.47;66.81;96350.00;4918724;28;102763;-70
2024/03/10 06:30:05;;;;;;;4.53;2.22;;;;;;;5.79;65.74;96345.09;4919762;28;103325;-70
2024/03/10 06:32:33;;;;;;;7.22;3.28;;;;;;;5.94;64.66;96331.81;4922968;28;103556;-71
2024/03/10 06:35:04;;;;;;;4.57;2.22;;;;;;;6.04;64.45;96327.03;4917369;28;102649;-71
2024/03/10 06:37:33;;;;;;;4.60;2.15;;;;;;;6.14;64.51;96321.41;4893966;28;102780;-70
2024/03/10 06:40:04;;;;;;;8.98;3.25;;;;;;;6.06;65.33;96324.22;4923517;28;103475;-70
2024/03/10 06:42:32;;;;;;;7.10;2.70;;;;;;;6.16;65.56;96329.06;4919465;28;103314;-71
2024/03/10 06:45:00;;;;;;;7.03;3.35;;;;;;;5.97;67.30;96332.25;4919925;28;102756;-70
2024/03/10 06:47:28;;;;;;;5.68;3.17;;;;;;;6.13;65.97;96332.91;4919097;28;102755;-71
2024/03/10 06:49:57;;;;;;;5.55;3.03;;;;;;;6.12;65.80;96340.00;4917117;28;103329;-70
2024/03/10 06:52:28;;;;;;;4.93;2.78;;;;;;;6.24;65.99;96336.81;4905767;28;107182;-72
2024/03/10 06:54:57;;;;;;;4.18;2.42;;;;;;;6.32;65.54;96344.50;4909321;28;102782;-71
2024/03/10 06:57:26;;;;;;;5.60;2.90;;;;;;;6.34;65.95;96347.75;4894249;28;102934;-72
2024/03/10 06:59:57;;;;;;;4.13;2.22;;;;;;;6.42;65.41;96330.94;4908151;28;103359;-70
2024/03/10 07:02:26;;;;;;;4.97;2.78;;;;;;;6.37;66.04;96328.94;4916228;28;103905;-72
2024/03/10 07:04:56;;;;;;;7.50;4.00;;;;;;;6.40;65.08;96335.63;4915969;28;102729;-70
2024/03/10 07:07:26;;;;;;;6.35;3.40;;;;;;;6.10;66.66;96334.13;4913455;28;102840;-72
2024/03/10 07:09:54;;;;;;;8.13;3.50;;;;;;;5.80;68.25;96323.91;4913386;28;103201;-71
2024/03/10 07:12:23;;;;;;;6.15;2.92;;;;;;;6.04;67.58;96323.59;4922016;28;103145;-71
2024/03/10 07:14:52;;;;;;;5.63;3.00;;;;;;;6.29;66.01;96323.88;4915953;28;102747;-83
2024/03/10 07:17:20;;;;;;;7.93;3.90;;;;;;;6.04;67.42;96321.78;4916154;28;104057;-75
2024/03/10 07:19:48;;;;;;;11.75;3.38;;;;;;;5.62;69.35;96313.09;4923945;28;103368;-78
2024/03/10 07:22:17;;;;;;;6.97;3.10;;;;;;;5.76;67.82;96313.97;4908304;28;105565;-76
2024/03/10 07:24:44;;;;;;;6.53;2.85;;;;;;;5.34;69.95;96310.53;4899998;28;102714;-76
2024/03/10 07:27:12;;;;;;;5.13;2.63;;;;;;;5.37;68.79;96300.47;4922388;28;102681;-72
2024/03/10 07:29:41;;;;;;;4.75;2.50;;;;;;;5.47;67.20;96295.66;4899980;28;106208;-73
2024/03/10 07:32:10;;;;;;;4.68;2.35;;;;;;;5.65;67.23;96296.97;4916013;28;103509;-73
2024/03/10 07:34:39;;;;;;;9.00;3.47;;;;;;;5.60;67.27;96294.91;4912423;28;102828;-74
2024/03/10 07:37:07;;;;;;;5.30;2.65;;;;;;;5.61;67.25;96295.75;4917971;28;102886;-79
2024/03/10 07:39:35;;;;;;;5.30;3.05;;;;;;;5.76;66.08;96287.69;4913348;28;106155;-70
2024/03/10 07:42:03;;;;;;;6.75;3.28;;;;;;;5.91;65.61;96279.69;4906536;28;103069;-71
2024/03/10 07:44:31;;;;;;;8.35;3.25;;;;;;;6.04;66.42;96271.84;4900412;28;102814;-71
2024/03/10 07:47:00;;;;;;;6.43;3.33;;;;;;;6.10;65.30;96272.88;4908003;28;103462;-73
2024/03/10 07:49:29;;;;;;;11.18;3.63;;;;;;;6.30;64.05;96270.25;4912742;28;108807;-74
2024/03/10 07:51:57;;;;;;;5.93;2.80;;;;;;;6.60;63.68;96268.06;4916588;28;103024;-73
2024/03/10 07:54:25;;;;;;;6.05;2.72;;;;;;;6.85;63.04;96290.31;4912970;28;103121;-72
2024/03/10 07:56:55;;;;;;;8.40;2.67;;;;;;;7.13;63.59;96306.69;4928870;28;102673;-74
2024/03/10 07:59:23;;;;;;;4.57;2.40;;;;;;;7.44;62.87;96304.38;4911295;28;105239;-75
2024/03/10 08:01:52;;;;;;;4.18;2.40;;;;;;;7.66;62.41;96312.81;4918029;28;103175;-78
2024/03/10 08:04:22;;;;;;;6.32;3.30;;;;;;;7.79;62.22;96318.06;4924942;28;102668;-82
2024/03/10 08:06:51;;;;;;;7.55;2.90;;;;;;;7.87;61.00;96318.84;4915797;28;102625;-73
2024/03/10 08:09:21;;;;;;;9.65;2.63;;;;;;;7.78;59.93;96318.25;4901952;28;105387;-75
2024/03/10 08:11:51;;;;;;;4.90;2.45;;;;;;;8.06;58.33;96319.78;4920438;28;103237;-74
2024/03/10 08:14:20;;;;;;;6.10;2.30;;;;;;;8.23;58.14;96314.81;4914455;28;102882;-76
2024/03/10 08:16:49;;;;;;;8.35;2.10;;;;;;;8.13;58.13;96329.28;4913751;28;103109;-74
2024/03/10 08:19:17;;;;;;;7.35;2.67;;;;;;;7.75;59.32;96321.31;4921213;28;103209;-80
2024/03/10 08:21:45;;;;;;;4.65;2.20;;;;;;;7.68;59.16;96310.00;4927244;28;103268;-74
2024/03/10 08:24:15;;;;;;;4.80;2.20;;;;;;;7.70;60.22;96300.03;4914086;28;103017;-73
2024/03/10 08:26:43;;;;;;;6.28;2.50;;;;;;;7.70;60.64;96303.47;4922757;28;103077;-74
2024/03/10 08:29:11;;;;;;;2.72;1.75;;;;;;;8.05;60.09;96295.22;4903501;28;106461;-77
2024/03/10 08:31:42;;;;;;;5.95;2.08;;;;;;;7.78;59.64;96291.91;4896994;28;103194;-74
2024/03/10 08:34:10;;;;;;;5.43;2.40;;;;;;;7.76;60.77;96286.84;4897472;28;102722;-74
2024/03/10 08:36:39;;;;;;;5.00;2.30;;;;;;;7.88;61.02;96273.03;4915734;28;102879;-73
2024/03/10 08:39:08;;;;;;;7.80;2.28;;;;;;;7.99;59.61;96264.47;4918296;28;103752;-73
2024/03/10 08:41:37;;;;;;;4.90;2.03;;;;;;;8.14;59.03;96272.84;4918010;28;103375;-75
2024/03/10 08:44:06;;;;;;;3.53;1.55;;;;;;;8.37;58.86;96284.69;4902445;28;102749;-77
2024/03/10 08:46:37;;;;;;;5.70;1.85;;;;;;;8.32;57.80;96288.97;4900109;28;103013;-73
2024/03/10 08:49:05;;;;;;;4.45;2.00;;;;;;;8.23;57.47;96280.53;4914483;28;103849;-74
2024/03/10 08:51:35;;;;;;;3.60;1.88;;;;;;;8.38;57.71;96278.38;4912658;28;103349;-73
2024/03/10 08:54:07;;;;;;;3.15;1.73;;;;;;;8.44;57.08;96288.09;4919728;28;102891;-77
2024/03/10 08:56:39;;;;;;;4.53;2.47;;;;;;;8.51;54.89;96282.00;4917354;28;102694;-79
2024/03/10 08:59:10;;;;;;;3.58;1.83;;;;;;;8.78;56.37;96278.13;4921049;28;103246;-79
2024/03/10 09:01:38;;;;;;;3.80;1.75;;;;;;;8.91;55.08;96277.19;4912530;28;104656;-82
2024/03/10 09:04:07;;;;;;;5.03;2.00;;;;;;;8.66;56.86;96269.31;4921642;28;102698;-74
2024/03/10 09:06:35;;;;;;;4.03;1.80;;;;;;;8.56;56.82;96261.06;4920921;28;102753;-71
2024/03/10 09:09:04;;;;;;;4.03;1.92;;;;;;;8.67;57.20;96254.25;4922380;28;103523;-77
2024/03/10 09:11:32;;;;;;;6.32;2.10;;;;;;;8.92;56.75;96256.88;4906238;28;105205;-76
2024/03/10 09:14:03;;;;;;;4.10;1.80;;;;;;;8.93;57.04;96247.94;4925101;28;102660;-72
2024/03/10 09:16:31;;;;;;;4.15;2.10;;;;;;;9.17;55.74;96253.38;4928811;28;102682;-82
2024/03/10 09:18:59;;;;;;;3.03;1.48;;;;;;;9.66;55.18;96267.47;4936429;28;103429;-72
2024/03/10 09:21:27;;;;;;;6.13;1.80;;;;;;;10.11;53.28;96274.22;4925037;28;106809;-73
2024/03/10 09:23:55;;;;;;;3.47;1.80;;;;;;;10.63;52.93;96283.50;4918708;28;102691;-73
2024/03/10 09:26:23;;;;;;;2.53;1.40;;;;;;;11.11;52.45;96304.47;4912129;28;102820;-75
2024/03/10 09:28:51;;;;;;;2.28;1.38;;;;;;;10.84;51.94;96319.22;4930326;28;103287;-74
2024/03/10 09:31:20;;;;;;;3.50;1.70;;;;;;;10.47;49.93;96308.75;4925429;28;102603;-73
2024/03/10 09:33:48;;;;;;;4.18;1.45;;;;;;;10.65;51.46;96307.88;4926370;28;102595;-70
2024/03/10 09:36:16;;;;;;;3.58;1.73;;;;;;;11.06;50.85;96312.31;4931876;28;102878;-70
2024/03/10 09:38:45;;;;;;;2.85;1.63;;;;;;;11.63;50.04;96316.19;4923239;28;103318;-70
2024/03/10 09:41:15;;;;;;;2.47;1.30;;;;;;;11.70;49.97;96316.88;4924197;28;103776;-70
2024/03/10 09:43:45;;;;;;;3.63;1.75;;;;;;;11.19;49.70;96308.63;4923966;28;103183;-72
2024/03/10 09:46:14;;;;;;;4.30;1.60;;;;;;;11.08;50.77;96307.59;4901676;28;102775;-70
2024/03/10 09:48:45;;;;;;;3.92;1.60;;;;;;;11.27;50.18;96304.84;4917960;28;105928;-73
2024/03/10 09:51:14;;;;;;;3.30;1.63;;;;;;;10.29;51.67;96299.81;4918841;28;103344;-74
2024/03/10 09:53:43;;;;;;;3.97;1.95;;;;;;;10.22;51.79;96285.91;4920712;28;102740;-75
2024/03/10 09:56:12;;;;;;;3.85;1.80;;;;;;;10.07;52.97;96260.66;4919342;28;102739;-74
2024/03/10 09:58:47;;;;;;;3.17;1.88;;;;;;;10.48;53.08;96262.75;4914827;28;103312;-70
2024/03/10 10:01:18;;;;;;;3.87;1.90;;;;;;;10.47;51.84;96277.00;4919915;28;103166;-70
2024/03/10 10:03:52;;;;;;;4.18;1.38;;;;;;;10.25;51.90;96286.22;4901452;28;102836;-70
2024/03/10 10:06:22;;;;;;;2.47;1.50;;;;;;;11.01;51.86;96309.53;4920136;28;103554;-72
2024/03/10 10:08:53;;;;;;;3.22;1.75;;;;;;;11.44;50.00;96297.78;4917529;28;103226;-72
2024/03/10 10:11:23;;;;;;;2.63;1.50;;;;;;;10.88;50.90;96288.59;4911374;28;105350;-72
2024/03/10 10:14:08;;;;;;;2.35;1.58;;;;;;;10.88;52.10;96275.34;4900598;28;102813;-70
2024/03/10 10:16:36;;;;;;;2.85;1.60;;;;;;;10.89;51.11;96274.31;4916633;28;103213;-69
2024/03/10 10:19:19;;;;;;;2.75;1.50;;;;;;;10.45;51.21;96250.75;4918476;28;103319;-70
2024/03/10 10:21:47;;;;;;;3.88;2.05;;;;;;;10.61;51.35;96259.88;4923786;28;103193;-69
2024/03/10 10:24:16;;;;;;;3.88;1.73;;;;;;;10.57;51.11;96264.00;4923450;28;103585;-73
2024/03/10 10:26:56;;;;;;;2.72;1.60;;;;;;;10.39;51.42;96260.44;4922637;28;102793;-69
2024/03/10 10:29:25;;;;;;;7.25;1.60;;;;;;;10.80;51.67;96270.41;4916566;28;103479;-72
2024/03/10 10:31:56;;;;;;;4.47;1.60;;;;;;;11.19;50.63;96263.59;4920302;28;103224;-74
2024/03/10 10:34:26;;;;;;;2.63;1.23;;;;;;;11.76;50.43;96264.75;4915325;28;102732;-70
2024/03/10 10:36:55;;;;;;;2.35;1.65;;;;;;;11.60;50.45;96255.69;4896848;28;102802;-69
2024/03/10 10:39:29;;;;;;;3.45;1.80;;;;;;;11.24;50.86;96265.53;4914939;28;103357;-70
2024/03/10 10:41:58;;;;;;;2.33;1.30;;;;;;;11.53;51.22;96258.47;4919997;28;104335;-69
2024/03/10 10:44:29;;;;;;;4.50;1.58;;;;;;;11.69;51.35;96274.69;4912276;28;103792;-71
2024/03/10 10:47:00;;;;;;;3.28;1.90;;;;;;;11.41;50.69;96271.75;4901777;28;102959;-75
2024/03/10 10:49:33;;;;;;;3.30;1.70;;;;;;;11.52;51.21;96269.31;4912769;28;109324;-71
2024/03/10 10:52:02;;;;;;;4.25;1.48;;;;;;;10.70;50.46;96263.00;4916006;28;103272;-69
2024/03/10 10:54:30;;;;;;;3.60;1.60;;;;;;;11.21;50.24;96266.00;4894935;28;105347;-71
2024/03/10 10:57:00;;;;;;;3.10;1.70;;;;;;;11.23;51.00;96269.25;4916042;28;102911;-73
2024/03/10 10:59:28;;;;;;;4.95;1.60;;;;;;;11.44;50.61;96265.97;4916052;28;108080;-74
2024/03/10 11:01:57;;;;;;;6.18;1.60;;;;;;;11.28;50.17;96264.06;4899454;28;103678;-74
2024/03/10 11:04:25;;;;;;;1.92;1.38;;;;;;;11.15;50.07;96249.19;4919464;28;102749;-73
2024/03/10 11:06:57;;;;;;;2.80;1.63;;;;;;;11.40;52.07;96238.34;4902813;28;103505;-73
2024/03/10 11:09:27;;;;;;;3.88;1.70;;;;;;;11.22;51.45;96222.59;4904429;28;106233;-73
2024/03/10 11:11:56;;;;;;;2.88;1.70;;;;;;;11.32;51.42;96217.50;4916391;28;104881;-71
2024/03/10 11:14:26;;;;;;;4.05;1.70;;;;;;;11.22;51.86;96217.28;4898701;28;102852;-71
2024/03/10 11:17:16;;;;;;;3.40;1.67;;;;;;;11.43;51.15;96224.59;4919113;28;102604;-74
2024/03/10 11:19:47;;;;;;;2.42;1.50;;;;;;;11.42;51.18;96240.75;4901611;28;110719;-74
2024/03/10 11:22:20;;;;;;;3.83;1.95;;;;;;;11.56;50.53;96230.69;4897638;28;107128;-72
2024/03/10 11:25:08;;;;;;;3.25;1.40;;;;;;;11.37;49.81;96236.16;4913009;28;102693;-72
2024/03/10 11:27:40;;;;;;;13.48;2.88;;;;;;;11.59;51.49;96246.13;4917130;28;102748;-72
2024/03/10 11:30:33;;;;;;;10.55;3.88;;;;;;;11.71;50.62;96246.09;4899509;28;105323;-70
2024/03/10 11:33:05;;;;;;;5.32;2.50;;;;;;;11.82;50.33;96247.09;4913888;28;103279;-71
2024/03/10 11:35:34;;;;;;;3.58;1.50;;;;;;;11.33;49.10;96248.25;4913942;28;102836;-75
2024/03/10 11:38:04;;;;;;;2.47;1.50;;;;;;;11.50;49.68;96237.75;4915162;28;102851;-74
2024/03/10 11:40:32;;;;;;;3.60;1.80;;;;;;;11.53;49.22;96237.25;4918185;28;105945;-73
2024/03/10 11:43:01;;;;;;;4.65;1.42;;;;;;;11.81;49.97;96237.53;4920336;28;103361;-73
2024/03/10 11:45:30;;;;;;;5.07;1.83;;;;;;;11.61;49.73;96233.44;4914543;28;102630;-73
2024/03/10 11:47:58;;;;;;;2.20;1.40;;;;;;;11.49;49.87;96217.56;4919257;28;104452;-74
2024/03/10 11:50:26;;;;;;;3.75;1.80;;;;;;;11.56;49.84;96222.75;4896252;28;109682;-73
2024/03/10 11:52:54;;;;;;;2.40;1.50;;;;;;;11.40;50.24;96221.63;4895467;28;106309;-73
2024/03/10 11:55:25;;;;;;;3.67;1.60;;;;;;;11.63;51.04;96231.34;4916971;28;103146;-74
2024/03/10 11:57:56;;;;;;;2.92;1.55;;;;;;;11.38;49.95;96232.44;4919003;28;105170;-72
2024/03/10 12:00:24;;;;;;;3.60;1.63;;;;;;;11.61;49.94;96244.84;4898262;28;105470;-73
2024/03/10 12:02:55;;;;;;;4.80;2.10;;;;;;;11.73;49.06;96252.75;4919838;28;105582;-73
2024/03/10 12:05:23;;;;;;;2.38;1.20;;;;;;;12.05;49.48;96262.97;4900797;28;103693;-76